Portada
METAR-TAF:

METAR-TAF

Aeroports :

Kunming, Xina

latitud: 25-01N, longitud: 102-41E, altitud: 1892 m

Observació

L'informe es va fer fa 40 minuts, a les 11:00 UTC
Vent 14 kt del Sud/Sud-Oest
Temperatura 17°C
Humitat 27%
Pressió 1017 hPa
Visibilitat 10 km o més
sense núvols per sota de 1500 mi sense presència de cumulonimbus.

METAR: ZPPP 201100Z 21007MPS CAVOK 17/M02 Q1017 NOSIG

Hora: 19:40 (11:40 UTC)

Pronòstic

L'informe es va fer fa 4 hores i 33 minuts, a les 07:07 UTC
Pronòstic vàlid del 20 a les 12 UTC al 21 a les 12 UTC
Vent 12 kt del Sud-Oest
Visibilitat 10 km o més
sense núvols per sota de 1500 mi sense presència de cumulonimbus.
Evolucionant progressivament
l' 21 a les 03 UTC al 21 a les 04 UTC
Vent 23 kt del Sud-Oest amb ràfegues de 33 kt

TAF: ZPPP 200707Z 2012/2112 22006MPS CAVOK TX21/2108Z TN05/2023Z BECMG 2103/2104 22012G17MPS

Observacions i pronòstics meteorològics de més de 4000 aeroports (METAR i TAF).

Les estacions disponibles són els punts grocs i vermells al mapa.

Posi el ratolí al punt desitjat per veure el nom de l'estació.

Feu clic per veure les observacions i els pronòstics meteorològics.

Per canviar el mapa: feu clic els botons verds amb una creu de color negre per apropar; al botó verd amb un guió per allunyar la imatge; o en les fletxes verdes per a mapes adjacents.


METAR-TAF: